Time;durP1;ratioP1;P1;durP2;ratioP2;P2;SDS_P1;SDS_P2;PMS_P1;PMS_P2;Temp;Humidity;BMP_temperature;BMP_pressure;BME280_temperature;BME280_humidity;BME280_pressure;Samples;Min_cycle;Max_cycle;Signal;HPM_P1;HPM_P2
2023/05/19 00:00:14;;;;;;;1.00;0.40;;;;;;;;;;5013577;28;58818;-58
2023/05/19 00:02:39;;;;;;;0.55;0.50;;;;;;;;;;5016994;28;58121;-61
2023/05/19 00:05:05;;;;;;;0.43;0.30;;;;;;;;;;5016790;28;58878;-61
2023/05/19 00:07:31;;;;;;;0.40;0.40;;;;;;;;;;5015434;28;58780;-61
2023/05/19 00:09:56;;;;;;;0.88;0.52;;;;;;;;;;5019084;28;58785;-60
2023/05/19 00:12:22;;;;;;;0.87;0.73;;;;;;;;;;5014825;28;58958;-61
2023/05/19 00:14:47;;;;;;;0.20;0.20;;;;;;;;;;5013273;28;58381;-61
2023/05/19 00:17:13;;;;;;;0.97;0.73;;;;;;;;;;5019458;28;58317;-61
2023/05/19 00:19:39;;;;;;;0.52;0.50;;;;;;;;;;5018788;28;58593;-61
2023/05/19 00:22:04;;;;;;;0.30;0.20;;;;;;;;;;5019778;28;58332;-60
2023/05/19 00:24:29;;;;;;;0.68;0.30;;;;;;;;;;5019198;28;58193;-62
2023/05/19 00:26:54;;;;;;;0.30;0.20;;;;;;;;;;5017371;28;58752;-61
2023/05/19 00:29:19;;;;;;;0.57;0.47;;;;;;;;;;5021261;28;58362;-61
2023/05/19 00:31:45;;;;;;;0.45;0.38;;;;;;;;;;5015276;28;58690;-61
2023/05/19 00:34:10;;;;;;;0.20;0.20;;;;;;;;;;5014401;28;59019;-60
2023/05/19 00:36:35;;;;;;;0.50;0.28;;;;;;;;;;5017990;28;58335;-61
2023/05/19 00:39:00;;;;;;;0.90;0.30;;;;;;;;;;5013453;28;58422;-61
2023/05/19 00:41:25;;;;;;;0.63;0.30;;;;;;;;;;5017349;28;58745;-61
2023/05/19 00:43:50;;;;;;;0.80;0.40;;;;;;;;;;5015920;28;58949;-61
2023/05/19 00:46:15;;;;;;;0.80;0.57;;;;;;;;;;5010417;28;57828;-61
2023/05/19 00:48:43;;;;;;;0.60;0.40;;;;;;;;;;5018231;28;58565;-61
2023/05/19 00:51:09;;;;;;;0.40;0.40;;;;;;;;;;5015440;28;59951;-60
2023/05/19 00:53:34;;;;;;;1.13;0.40;;;;;;;;;;5013503;28;58371;-60
2023/05/19 00:55:59;;;;;;;1.13;0.73;;;;;;;;;;5018679;28;59640;-60
2023/05/19 00:58:29;;;;;;;0.73;0.52;;;;;;;;;;5017888;28;58745;-61
2023/05/19 01:01:01;;;;;;;0.80;0.40;;;;;;;;;;5019228;28;58441;-61
2023/05/19 01:03:29;;;;;;;0.75;0.32;;;;;;;;;;5015185;28;58879;-61
2023/05/19 01:05:54;;;;;;;0.40;0.30;;;;;;;;;;5015653;28;59528;-60
2023/05/19 01:08:19;;;;;;;0.53;0.50;;;;;;;;;;5015895;28;58520;-61
2023/05/19 01:10:45;;;;;;;0.40;0.40;;;;;;;;;;5018073;28;58491;-57
2023/05/19 01:13:10;;;;;;;0.30;0.30;;;;;;;;;;5014328;28;58874;-59
2023/05/19 01:15:46;;;;;;;0.65;0.57;;;;;;;;;;5013086;28;57715;-61
2023/05/19 01:18:15;;;;;;;1.02;1.02;;;;;;;;;;5014460;28;58697;-60
2023/05/19 01:20:45;;;;;;;0.32;0.32;;;;;;;;;;5015555;28;58537;-61
2023/05/19 01:23:22;;;;;;;0.65;0.45;;;;;;;;;;5020725;28;58462;-61
2023/05/19 01:25:56;;;;;;;0.57;0.50;;;;;;;;;;5011708;28;63984;-61
2023/05/19 01:28:30;;;;;;;0.32;0.32;;;;;;;;;;5015106;28;58796;-61
2023/05/19 01:30:57;;;;;;;0.60;0.50;;;;;;;;;;5018651;28;58369;-61
2023/05/19 01:33:22;;;;;;;0.75;0.65;;;;;;;;;;5016758;28;58389;-60
2023/05/19 01:35:48;;;;;;;0.32;0.30;;;;;;;;;;5016450;28;58350;-61
2023/05/19 01:38:15;;;;;;;1.58;0.30;;;;;;;;;;5020185;28;58430;-61
2023/05/19 01:40:40;;;;;;;0.57;0.57;;;;;;;;;;5021316;28;58287;-61
2023/05/19 01:43:08;;;;;;;1.38;0.73;;;;;;;;;;5020464;28;58284;-60
2023/05/19 01:45:33;;;;;;;1.05;0.55;;;;;;;;;;5012589;28;58849;-60
2023/05/19 01:47:59;;;;;;;0.20;0.20;;;;;;;;;;5023509;28;58378;-59
2023/05/19 01:50:25;;;;;;;0.30;0.30;;;;;;;;;;5015195;28;58704;-61
2023/05/19 01:52:50;;;;;;;0.20;0.20;;;;;;;;;;5020954;28;59359;-58
2023/05/19 01:55:16;;;;;;;0.40;0.40;;;;;;;;;;5018912;28;58277;-61
2023/05/19 01:58:00;;;;;;;0.40;0.40;;;;;;;;;;5022113;28;58667;-60
2023/05/19 02:00:44;;;;;;;0.30;0.30;;;;;;;;;;5020536;28;58657;-61
2023/05/19 02:03:12;;;;;;;1.75;0.32;;;;;;;;;;5017617;28;58354;-61
2023/05/19 02:05:39;;;;;;;0.30;0.30;;;;;;;;;;5020262;28;58206;-61
2023/05/19 02:08:25;;;;;;;1.47;0.40;;;;;;;;;;5020624;28;58526;-61
2023/05/19 02:10:56;;;;;;;0.40;0.40;;;;;;;;;;5021449;28;62022;-60
2023/05/19 02:13:22;;;;;;;0.90;0.55;;;;;;;;;;5016962;28;58972;-61
2023/05/19 02:15:47;;;;;;;0.40;0.40;;;;;;;;;;5017224;28;58336;-60
2023/05/19 02:18:12;;;;;;;0.60;0.40;;;;;;;;;;5016834;28;58426;-61
2023/05/19 02:20:38;;;;;;;0.35;0.32;;;;;;;;;;5015307;28;58532;-60
2023/05/19 02:23:03;;;;;;;4.03;0.47;;;;;;;;;;5022823;28;57885;-61
2023/05/19 02:25:29;;;;;;;0.30;0.30;;;;;;;;;;5019901;28;58567;-61
2023/05/19 02:27:54;;;;;;;0.30;0.30;;;;;;;;;;5016116;28;58797;-60
2023/05/19 02:30:19;;;;;;;0.70;0.47;;;;;;;;;;5025598;28;58684;-61
2023/05/19 02:32:45;;;;;;;0.43;0.43;;;;;;;;;;5019085;28;59154;-61
2023/05/19 02:35:10;;;;;;;0.57;0.40;;;;;;;;;;5022613;28;58355;-60
2023/05/19 02:37:35;;;;;;;0.20;0.20;;;;;;;;;;5019679;28;58566;-61
2023/05/19 02:40:01;;;;;;;0.15;0.15;;;;;;;;;;5021152;28;58544;-60
2023/05/19 02:42:26;;;;;;;0.30;0.30;;;;;;;;;;5012622;28;58320;-59
2023/05/19 02:44:53;;;;;;;0.40;0.40;;;;;;;;;;5017052;28;58423;-61
2023/05/19 02:47:18;;;;;;;0.28;0.28;;;;;;;;;;5018772;28;58707;-60
2023/05/19 02:49:43;;;;;;;0.63;0.40;;;;;;;;;;5017605;28;59133;-60
2023/05/19 02:52:09;;;;;;;0.40;0.40;;;;;;;;;;5016527;28;58788;-59
2023/05/19 02:54:34;;;;;;;0.30;0.27;;;;;;;;;;5018555;28;58566;-59
2023/05/19 02:57:00;;;;;;;0.50;0.50;;;;;;;;;;5020481;28;58406;-61
2023/05/19 02:59:25;;;;;;;0.75;0.30;;;;;;;;;;5016734;28;59430;-61
2023/05/19 03:01:53;;;;;;;0.33;0.33;;;;;;;;;;5017516;28;58461;-60
2023/05/19 03:04:18;;;;;;;0.30;0.30;;;;;;;;;;5018580;28;59021;-61
2023/05/19 03:06:44;;;;;;;1.43;0.50;;;;;;;;;;5014672;28;59273;-59
2023/05/19 03:09:09;;;;;;;0.32;0.32;;;;;;;;;;5019262;28;58847;-61
2023/05/19 03:11:34;;;;;;;0.47;0.30;;;;;;;;;;5017312;28;58993;-60
2023/05/19 03:13:59;;;;;;;0.40;0.40;;;;;;;;;;5016771;28;58429;-60
2023/05/19 03:16:26;;;;;;;0.52;0.30;;;;;;;;;;5020366;28;58654;-61
2023/05/19 03:18:51;;;;;;;0.57;0.40;;;;;;;;;;5016170;28;58877;-61
2023/05/19 03:21:17;;;;;;;0.50;0.50;;;;;;;;;;5017053;28;58435;-60
2023/05/19 03:23:42;;;;;;;0.52;0.52;;;;;;;;;;5018417;28;59134;-59
2023/05/19 03:26:07;;;;;;;0.43;0.40;;;;;;;;;;5014226;28;58565;-60
2023/05/19 03:28:32;;;;;;;0.50;0.50;;;;;;;;;;5018375;28;58688;-58
2023/05/19 03:30:57;;;;;;;0.30;0.30;;;;;;;;;;5016592;28;59213;-61
2023/05/19 03:33:22;;;;;;;0.30;0.30;;;;;;;;;;5019095;28;58454;-60
2023/05/19 03:35:48;;;;;;;0.47;0.47;;;;;;;;;;5011428;28;59314;-60
2023/05/19 03:38:13;;;;;;;0.77;0.50;;;;;;;;;;5023759;28;58334;-61
2023/05/19 03:40:38;;;;;;;0.30;0.30;;;;;;;;;;5018285;28;57993;-59
2023/05/19 03:43:03;;;;;;;0.40;0.40;;;;;;;;;;5015821;28;59486;-61
2023/05/19 03:45:28;;;;;;;0.38;0.38;;;;;;;;;;5014589;28;58830;-60
2023/05/19 03:47:53;;;;;;;1.60;0.60;;;;;;;;;;5015516;28;58449;-60
2023/05/19 03:50:20;;;;;;;0.37;0.37;;;;;;;;;;5023454;28;58501;-61
2023/05/19 03:52:46;;;;;;;0.30;0.30;;;;;;;;;;5019492;28;58439;-60
2023/05/19 03:55:13;;;;;;;0.38;0.38;;;;;;;;;;5014386;28;59253;-61
2023/05/19 03:57:38;;;;;;;0.32;0.32;;;;;;;;;;5022374;28;58757;-60
2023/05/19 04:00:04;;;;;;;0.50;0.50;;;;;;;;;;5024088;28;58734;-60
2023/05/19 04:02:30;;;;;;;0.38;0.38;;;;;;;;;;5015995;28;59966;-60
2023/05/19 04:04:56;;;;;;;0.68;0.60;;;;;;;;;;5018595;28;58564;-60
2023/05/19 04:07:21;;;;;;;0.30;0.30;;;;;;;;;;5011283;28;58315;-60
2023/05/19 04:09:47;;;;;;;0.60;0.47;;;;;;;;;;5013792;28;58161;-60
2023/05/19 04:12:12;;;;;;;0.73;0.50;;;;;;;;;;5015651;28;58467;-60
2023/05/19 04:14:37;;;;;;;0.50;0.40;;;;;;;;;;5013459;28;58792;-61
2023/05/19 04:17:02;;;;;;;0.30;0.30;;;;;;;;;;5012855;28;58712;-60
2023/05/19 04:19:28;;;;;;;0.30;0.30;;;;;;;;;;5017461;28;58397;-60
2023/05/19 04:21:53;;;;;;;0.40;0.40;;;;;;;;;;5012320;28;58555;-61
2023/05/19 04:24:18;;;;;;;0.30;0.30;;;;;;;;;;5016524;28;58592;-60
2023/05/19 04:26:45;;;;;;;1.33;0.68;;;;;;;;;;5018315;28;59136;-61
2023/05/19 04:29:12;;;;;;;0.43;0.43;;;;;;;;;;5018128;28;58647;-60
2023/05/19 04:31:39;;;;;;;0.40;0.40;;;;;;;;;;5016024;28;58612;-58
2023/05/19 04:34:06;;;;;;;0.50;0.45;;;;;;;;;;5017593;28;58424;-60
2023/05/19 04:36:32;;;;;;;0.52;0.30;;;;;;;;;;5011417;28;58711;-60
2023/05/19 04:39:01;;;;;;;0.98;0.55;;;;;;;;;;5017417;28;58394;-61
2023/05/19 04:41:26;;;;;;;0.50;0.40;;;;;;;;;;5010912;28;58932;-60
2023/05/19 04:43:51;;;;;;;0.47;0.47;;;;;;;;;;5012509;28;58504;-61
2023/05/19 04:46:17;;;;;;;0.43;0.37;;;;;;;;;;5015853;28;58463;-60
2023/05/19 04:48:42;;;;;;;0.30;0.30;;;;;;;;;;5018577;28;59044;-58
2023/05/19 04:51:08;;;;;;;0.77;0.77;;;;;;;;;;5017955;28;58746;-60
2023/05/19 04:53:33;;;;;;;0.30;0.30;;;;;;;;;;5014677;28;57904;-61
2023/05/19 04:55:59;;;;;;;0.50;0.50;;;;;;;;;;5016986;28;58270;-60
2023/05/19 04:58:25;;;;;;;0.30;0.30;;;;;;;;;;5018154;28;58897;-60
2023/05/19 05:00:50;;;;;;;0.57;0.40;;;;;;;;;;5014898;28;58844;-60
2023/05/19 05:03:16;;;;;;;0.60;0.60;;;;;;;;;;5015028;28;58696;-60
2023/05/19 05:05:41;;;;;;;0.65;0.45;;;;;;;;;;5016252;28;58552;-60
2023/05/19 05:08:06;;;;;;;0.52;0.50;;;;;;;;;;5018323;28;58388;-60
2023/05/19 05:10:31;;;;;;;0.50;0.50;;;;;;;;;;5014096;28;58367;-61
2023/05/19 05:12:57;;;;;;;0.50;0.50;;;;;;;;;;5015230;28;58558;-60
2023/05/19 05:15:23;;;;;;;2.78;0.40;;;;;;;;;;5018093;28;59554;-60
2023/05/19 05:17:48;;;;;;;0.50;0.40;;;;;;;;;;5017606;28;59240;-60
2023/05/19 05:20:13;;;;;;;0.52;0.45;;;;;;;;;;5014556;28;58899;-61
2023/05/19 05:22:39;;;;;;;0.43;0.40;;;;;;;;;;5018043;28;58625;-60
2023/05/19 05:25:05;;;;;;;0.32;0.32;;;;;;;;;;5014577;28;58407;-60
2023/05/19 05:27:31;;;;;;;0.40;0.40;;;;;;;;;;5016906;28;58905;-60
2023/05/19 05:29:56;;;;;;;0.45;0.40;;;;;;;;;;5019994;28;58577;-60
2023/05/19 05:32:21;;;;;;;0.77;0.47;;;;;;;;;;5018838;28;58499;-57
2023/05/19 05:34:47;;;;;;;0.23;0.20;;;;;;;;;;5016549;28;59966;-60
2023/05/19 05:37:12;;;;;;;0.63;0.63;;;;;;;;;;5015003;28;58740;-59
2023/05/19 05:39:37;;;;;;;0.40;0.40;;;;;;;;;;5022245;28;58592;-56
2023/05/19 05:42:02;;;;;;;0.53;0.53;;;;;;;;;;5018247;28;58322;-60
2023/05/19 05:44:27;;;;;;;0.67;0.40;;;;;;;;;;5016135;28;58406;-60
2023/05/19 05:46:53;;;;;;;0.50;0.50;;;;;;;;;;5016108;28;58740;-60
2023/05/19 05:49:18;;;;;;;0.37;0.23;;;;;;;;;;5022713;28;58707;-59
2023/05/19 05:51:43;;;;;;;0.40;0.40;;;;;;;;;;5017551;28;58404;-61
2023/05/19 05:54:10;;;;;;;0.33;0.33;;;;;;;;;;5019581;28;59250;-60
2023/05/19 05:56:36;;;;;;;0.63;0.50;;;;;;;;;;5015174;28;58507;-60
2023/05/19 05:59:01;;;;;;;0.40;0.40;;;;;;;;;;5019041;28;58334;-60
2023/05/19 06:01:26;;;;;;;0.40;0.40;;;;;;;;;;5022397;28;58352;-60
2023/05/19 06:03:52;;;;;;;0.77;0.73;;;;;;;;;;5015289;28;58280;-61
2023/05/19 06:06:17;;;;;;;0.43;0.43;;;;;;;;;;5017636;28;58282;-60
2023/05/19 06:08:42;;;;;;;0.50;0.50;;;;;;;;;;5016919;28;58518;-60
2023/05/19 06:11:08;;;;;;;0.40;0.40;;;;;;;;;;5028983;28;58744;-61
2023/05/19 06:13:34;;;;;;;0.57;0.40;;;;;;;;;;5011905;28;58833;-60
2023/05/19 06:15:59;;;;;;;0.60;0.60;;;;;;;;;;5012903;28;58601;-61
2023/05/19 06:18:24;;;;;;;0.20;0.20;;;;;;;;;;5015929;28;58804;-59
2023/05/19 06:20:49;;;;;;;0.40;0.40;;;;;;;;;;5019674;28;58593;-60
2023/05/19 06:23:14;;;;;;;0.30;0.30;;;;;;;;;;5018189;28;58429;-60
2023/05/19 06:25:40;;;;;;;0.52;0.50;;;;;;;;;;5014345;28;58378;-61
2023/05/19 06:28:05;;;;;;;0.60;0.32;;;;;;;;;;5013325;28;59190;-61
2023/05/19 06:30:30;;;;;;;0.60;0.30;;;;;;;;;;5013342;28;58902;-60
2023/05/19 06:32:55;;;;;;;0.73;0.32;;;;;;;;;;5016854;28;58702;-60
2023/05/19 06:35:20;;;;;;;0.40;0.40;;;;;;;;;;5013255;28;58402;-59
2023/05/19 06:37:46;;;;;;;0.40;0.40;;;;;;;;;;5016692;28;58244;-60
2023/05/19 06:40:11;;;;;;;0.40;0.30;;;;;;;;;;5022254;28;59088;-60
2023/05/19 06:42:36;;;;;;;0.30;0.22;;;;;;;;;;5015259;28;58303;-60
2023/05/19 06:45:01;;;;;;;0.63;0.50;;;;;;;;;;5014382;28;58382;-60
2023/05/19 06:47:26;;;;;;;0.77;0.40;;;;;;;;;;5013255;28;58418;-60
2023/05/19 06:49:55;;;;;;;0.63;0.63;;;;;;;;;;5013364;28;58327;-61
2023/05/19 06:52:20;;;;;;;;;;;;;;;;;;5017507;28;59311;-60
2023/05/19 06:54:45;;;;;;;1.10;0.97;;;;;;;;;;5014470;28;58930;-60
2023/05/19 06:57:10;;;;;;;3.30;0.68;;;;;;;;;;5017227;28;58976;-61
2023/05/19 06:59:36;;;;;;;1.30;0.50;;;;;;;;;;5016799;28;59153;-61
2023/05/19 07:02:01;;;;;;;0.60;0.22;;;;;;;;;;5017758;28;58425;-61
2023/05/19 07:04:26;;;;;;;0.83;0.50;;;;;;;;;;5018272;28;58942;-61
2023/05/19 07:06:52;;;;;;;0.73;0.73;;;;;;;;;;5015138;28;58628;-61
2023/05/19 07:09:17;;;;;;;1.65;0.40;;;;;;;;;;5014878;28;59776;-60
2023/05/19 07:11:42;;;;;;;0.90;0.60;;;;;;;;;;5017631;28;58341;-60
2023/05/19 07:14:07;;;;;;;0.55;0.43;;;;;;;;;;5019551;28;58435;-61
2023/05/19 07:16:32;;;;;;;1.55;0.85;;;;;;;;;;5015536;28;58426;-61
2023/05/19 07:18:57;;;;;;;1.88;1.45;;;;;;;;;;5017229;28;58580;-60
2023/05/19 07:21:23;;;;;;;2.03;0.82;;;;;;;;;;5022552;28;58303;-60
2023/05/19 07:23:48;;;;;;;2.03;0.70;;;;;;;;;;5019146;28;58377;-60
2023/05/19 07:26:13;;;;;;;5.30;1.23;;;;;;;;;;5013623;28;58388;-61
2023/05/19 07:28:38;;;;;;;4.13;0.63;;;;;;;;;;5012950;28;58402;-60
2023/05/19 07:31:03;;;;;;;1.20;0.90;;;;;;;;;;5016086;28;58594;-61
2023/05/19 07:33:28;;;;;;;6.00;1.47;;;;;;;;;;5014339;28;58358;-61
2023/05/19 07:35:54;;;;;;;6.70;1.48;;;;;;;;;;5016844;28;58398;-62
2023/05/19 07:38:19;;;;;;;3.03;1.70;;;;;;;;;;5011549;28;59141;-60
2023/05/19 07:40:44;;;;;;;2.37;1.43;;;;;;;;;;5017589;28;58546;-61
2023/05/19 07:43:10;;;;;;;7.23;1.23;;;;;;;;;;5019195;28;58130;-62
2023/05/19 07:45:35;;;;;;;7.32;1.30;;;;;;;;;;5020969;28;59921;-62
2023/05/19 07:48:00;;;;;;;4.13;1.10;;;;;;;;;;5018243;28;58834;-60
2023/05/19 07:50:26;;;;;;;6.13;1.42;;;;;;;;;;5015629;28;58400;-61
2023/05/19 07:52:51;;;;;;;3.63;2.15;;;;;;;;;;5015434;28;58757;-61
2023/05/19 07:55:17;;;;;;;10.13;2.90;;;;;;;;;;5018212;28;58917;-61
2023/05/19 07:57:43;;;;;;;6.38;2.30;;;;;;;;;;5021375;28;58577;-62
2023/05/19 08:00:10;;;;;;;4.32;1.70;;;;;;;;;;5022026;28;58832;-59
2023/05/19 08:02:35;;;;;;;5.35;1.80;;;;;;;;;;5021698;28;58749;-62
2023/05/19 08:05:00;;;;;;;4.40;2.20;;;;;;;;;;5022599;28;59035;-62
2023/05/19 08:07:26;;;;;;;5.75;1.42;;;;;;;;;;5014745;28;58867;-61
2023/05/19 08:09:51;;;;;;;2.50;1.03;;;;;;;;;;5024725;28;58873;-62
2023/05/19 08:12:16;;;;;;;4.20;1.67;;;;;;;;;;5021925;28;58435;-62
2023/05/19 08:14:41;;;;;;;3.95;1.50;;;;;;;;;;5021532;28;59577;-63
2023/05/19 08:17:06;;;;;;;3.60;1.35;;;;;;;;;;5018770;28;58736;-62
2023/05/19 08:19:31;;;;;;;2.63;1.67;;;;;;;;;;5022490;28;58508;-62
2023/05/19 08:21:59;;;;;;;7.90;1.47;;;;;;;;;;5022422;28;58721;-62
2023/05/19 08:24:25;;;;;;;8.00;1.85;;;;;;;;;;5022657;28;58746;-62
2023/05/19 08:26:50;;;;;;;4.57;1.88;;;;;;;;;;5023366;28;58553;-61
2023/05/19 08:29:15;;;;;;;4.32;1.35;;;;;;;;;;5017893;28;57991;-62
2023/05/19 08:31:40;;;;;;;5.40;1.00;;;;;;;;;;5022283;28;58898;-61
2023/05/19 08:34:05;;;;;;;3.78;1.48;;;;;;;;;;5023640;28;58788;-62
2023/05/19 08:36:32;;;;;;;1.63;0.80;;;;;;;;;;5019979;28;60023;-62
2023/05/19 08:38:57;;;;;;;2.17;0.75;;;;;;;;;;5015643;28;58925;-62
2023/05/19 08:41:22;;;;;;;1.92;1.45;;;;;;;;;;5024001;28;58703;-62
2023/05/19 08:43:48;;;;;;;1.67;0.68;;;;;;;;;;5024958;28;58376;-62
2023/05/19 08:46:15;;;;;;;1.77;0.90;;;;;;;;;;5022569;28;58631;-62
2023/05/19 08:48:41;;;;;;;5.78;2.08;;;;;;;;;;5023213;28;58458;-61
2023/05/19 08:51:15;;;;;;;1.90;1.02;;;;;;;;;;5018463;28;58823;-62
2023/05/19 08:53:47;;;;;;;1.60;1.08;;;;;;;;;;5023372;28;58876;-62
2023/05/19 08:56:14;;;;;;;3.88;1.25;;;;;;;;;;5024464;28;59766;-62
2023/05/19 08:58:41;;;;;;;2.03;0.80;;;;;;;;;;5022938;28;58707;-62
2023/05/19 09:01:06;;;;;;;2.23;0.60;;;;;;;;;;5014207;28;58615;-62
2023/05/19 09:03:37;;;;;;;1.10;0.90;;;;;;;;;;5022016;28;58829;-62
2023/05/19 09:06:06;;;;;;;1.70;0.70;;;;;;;;;;5021942;28;58596;-62
2023/05/19 09:08:31;;;;;;;0.73;0.73;;;;;;;;;;5020360;28;58834;-62
2023/05/19 09:10:57;;;;;;;2.35;0.60;;;;;;;;;;5019061;28;58391;-62
2023/05/19 09:13:22;;;;;;;2.72;0.75;;;;;;;;;;5021409;28;58987;-62
2023/05/19 09:15:49;;;;;;;0.47;0.47;;;;;;;;;;5023679;28;58340;-62
2023/05/19 09:18:14;;;;;;;2.40;0.93;;;;;;;;;;5023054;28;58714;-62
2023/05/19 09:20:40;;;;;;;1.20;0.90;;;;;;;;;;5023838;28;58227;-62
2023/05/19 09:23:06;;;;;;;3.63;0.60;;;;;;;;;;5013821;28;59056;-59
2023/05/19 09:25:31;;;;;;;1.20;0.65;;;;;;;;;;5022880;28;58679;-62
2023/05/19 09:27:56;;;;;;;0.70;0.70;;;;;;;;;;5024031;28;58495;-62
2023/05/19 09:30:22;;;;;;;0.40;0.40;;;;;;;;;;5024189;28;58452;-62
2023/05/19 09:32:47;;;;;;;2.25;0.57;;;;;;;;;;5012855;28;58939;-62
2023/05/19 09:35:15;;;;;;;1.00;0.68;;;;;;;;;;5024814;28;58614;-61
2023/05/19 09:37:40;;;;;;;0.90;0.80;;;;;;;;;;5022504;28;59249;-62
2023/05/19 09:40:09;;;;;;;1.30;0.60;;;;;;;;;;5024496;28;58817;-61
2023/05/19 09:42:38;;;;;;;0.73;0.50;;;;;;;;;;5021483;28;58902;-62
2023/05/19 09:45:04;;;;;;;0.63;0.63;;;;;;;;;;5015109;28;59226;-61
2023/05/19 09:47:36;;;;;;;1.13;0.70;;;;;;;;;;5022702;28;58319;-62
2023/05/19 09:50:03;;;;;;;0.75;0.43;;;;;;;;;;5023071;28;58507;-62
2023/05/19 09:52:28;;;;;;;0.47;0.47;;;;;;;;;;5022507;28;58692;-61
2023/05/19 09:54:54;;;;;;;0.53;0.53;;;;;;;;;;5016072;28;58487;-62
2023/05/19 09:57:24;;;;;;;2.38;0.30;;;;;;;;;;5023552;28;58740;-62
2023/05/19 09:59:49;;;;;;;0.50;0.47;;;;;;;;;;5024828;28;58370;-62
2023/05/19 10:02:16;;;;;;;1.77;0.60;;;;;;;;;;5026998;28;58836;-62
2023/05/19 10:04:41;;;;;;;0.43;0.43;;;;;;;;;;5020469;28;59550;-62
2023/05/19 10:07:08;;;;;;;1.10;1.00;;;;;;;;;;5025444;28;58662;-62
2023/05/19 10:09:35;;;;;;;1.25;0.73;;;;;;;;;;5027048;28;58454;-62
2023/05/19 10:12:01;;;;;;;0.70;0.43;;;;;;;;;;5025204;28;58620;-61
2023/05/19 10:14:27;;;;;;;0.47;0.40;;;;;;;;;;5023847;28;58357;-62
2023/05/19 10:16:53;;;;;;;0.60;0.50;;;;;;;;;;5020870;28;58708;-60
2023/05/19 10:19:25;;;;;;;0.40;0.32;;;;;;;;;;5026318;28;58462;-61
2023/05/19 10:21:50;;;;;;;0.38;0.35;;;;;;;;;;5026031;28;59804;-62
2023/05/19 10:24:16;;;;;;;1.17;0.60;;;;;;;;;;5025405;28;58770;-61
2023/05/19 10:26:43;;;;;;;0.55;0.52;;;;;;;;;;5018015;28;58720;-62
2023/05/19 10:29:08;;;;;;;0.80;0.52;;;;;;;;;;5027609;28;58445;-61
2023/05/19 10:31:34;;;;;;;0.30;0.30;;;;;;;;;;5025810;28;58327;-62
2023/05/19 10:34:18;;;;;;;0.88;0.55;;;;;;;;;;5027302;28;58812;-62
2023/05/19 10:36:54;;;;;;;0.90;0.68;;;;;;;;;;5025548;28;59958;-62
2023/05/19 10:39:28;;;;;;;0.45;0.32;;;;;;;;;;5023688;28;58705;-62
2023/05/19 10:42:12;;;;;;;0.40;0.40;;;;;;;;;;5018337;28;58839;-62
2023/05/19 10:44:52;;;;;;;0.20;0.20;;;;;;;;;;5024440;28;58389;-62
2023/05/19 10:47:24;;;;;;;0.40;0.40;;;;;;;;;;5026803;28;58445;-62
2023/05/19 10:49:51;;;;;;;0.47;0.32;;;;;;;;;;5026389;28;63468;-62
2023/05/19 10:52:24;;;;;;;0.50;0.30;;;;;;;;;;5020207;28;58734;-58
2023/05/19 10:54:50;;;;;;;0.85;0.60;;;;;;;;;;5023391;28;58479;-62
2023/05/19 10:57:19;;;;;;;0.90;0.43;;;;;;;;;;5025762;28;59644;-61
2023/05/19 10:59:44;;;;;;;0.20;0.20;;;;;;;;;;5025427;28;58707;-62
2023/05/19 11:02:09;;;;;;;0.53;0.40;;;;;;;;;;5027134;28;58764;-62
2023/05/19 11:04:45;;;;;;;1.38;0.30;;;;;;;;;;5017902;28;58276;-62
2023/05/19 11:07:14;;;;;;;0.65;0.30;;;;;;;;;;5024502;28;58220;-62
2023/05/19 11:09:39;;;;;;;1.05;0.52;;;;;;;;;;5023823;28;58395;-63
2023/05/19 11:12:05;;;;;;;0.50;0.50;;;;;;;;;;5024985;28;58573;-62
2023/05/19 11:14:30;;;;;;;0.60;0.60;;;;;;;;;;5015408;28;58383;-62
2023/05/19 11:16:56;;;;;;;0.30;0.30;;;;;;;;;;5026385;28;59370;-62
2023/05/19 11:19:29;;;;;;;0.30;0.30;;;;;;;;;;5024302;28;58676;-62
2023/05/19 11:21:55;;;;;;;1.30;0.30;;;;;;;;;;5023854;28;58533;-61
2023/05/19 11:24:32;;;;;;;0.30;0.30;;;;;;;;;;5021351;28;58515;-62
2023/05/19 11:26:57;;;;;;;1.17;0.40;;;;;;;;;;5025214;28;58705;-62
2023/05/19 11:29:22;;;;;;;0.22;0.22;;;;;;;;;;5024272;28;58600;-61
2023/05/19 11:31:47;;;;;;;0.43;0.43;;;;;;;;;;5025018;28;58586;-62
2023/05/19 11:34:13;;;;;;;0.30;0.27;;;;;;;;;;5022052;28;58570;-62
2023/05/19 11:36:38;;;;;;;0.67;0.30;;;;;;;;;;5016752;28;58723;-61
2023/05/19 11:39:04;;;;;;;0.50;0.50;;;;;;;;;;5022001;28;58828;-62
2023/05/19 11:41:30;;;;;;;0.40;0.40;;;;;;;;;;5023885;28;58793;-62
2023/05/19 11:43:55;;;;;;;0.20;0.20;;;;;;;;;;5025963;28;59008;-62
2023/05/19 11:46:21;;;;;;;0.30;0.30;;;;;;;;;;5020075;28;59094;-62
2023/05/19 11:48:47;;;;;;;0.80;0.32;;;;;;;;;;5025395;28;59160;-60
2023/05/19 11:51:12;;;;;;;0.17;0.17;;;;;;;;;;5025190;28;58589;-61
2023/05/19 11:53:37;;;;;;;0.50;0.47;;;;;;;;;;5025140;28;58433;-62
2023/05/19 11:56:03;;;;;;;0.40;0.40;;;;;;;;;;5026094;28;58393;-61
2023/05/19 11:58:28;;;;;;;0.30;0.20;;;;;;;;;;5018892;28;58827;-62
2023/05/19 12:00:53;;;;;;;0.17;0.17;;;;;;;;;;5023470;28;58528;-63
2023/05/19 12:03:20;;;;;;;0.50;0.50;;;;;;;;;;5025162;28;58425;-60
2023/05/19 12:05:47;;;;;;;0.40;0.40;;;;;;;;;;5022901;28;58874;-62
2023/05/19 12:08:12;;;;;;;0.68;0.40;;;;;;;;;;5022736;28;58743;-62
2023/05/19 12:10:38;;;;;;;1.10;0.33;;;;;;;;;;5023988;28;58375;-62
2023/05/19 12:13:05;;;;;;;0.57;0.40;;;;;;;;;;5024215;28;58402;-62
2023/05/19 12:15:30;;;;;;;0.10;0.10;;;;;;;;;;5023239;28;58854;-63
2023/05/19 12:17:57;;;;;;;0.55;0.55;;;;;;;;;;5018780;28;58504;-62
2023/05/19 12:20:23;;;;;;;0.93;0.40;;;;;;;;;;5022792;28;58369;-62
2023/05/19 12:22:49;;;;;;;0.20;0.20;;;;;;;;;;5025576;28;58726;-62
2023/05/19 12:25:15;;;;;;;0.30;0.30;;;;;;;;;;5023726;28;58419;-61
2023/05/19 12:27:41;;;;;;;0.20;0.20;;;;;;;;;;5020857;28;58616;-62
2023/05/19 12:30:07;;;;;;;0.22;0.22;;;;;;;;;;5020890;28;58893;-62
2023/05/19 12:32:33;;;;;;;0.52;0.20;;;;;;;;;;5025025;28;58282;-62
2023/05/19 12:35:01;;;;;;;0.52;0.45;;;;;;;;;;5024053;28;58603;-62
2023/05/19 12:37:26;;;;;;;1.00;0.50;;;;;;;;;;5023529;28;58684;-62
2023/05/19 12:39:52;;;;;;;0.30;0.30;;;;;;;;;;5018591;28;58872;-62
2023/05/19 12:42:17;;;;;;;0.65;0.30;;;;;;;;;;5023036;28;58604;-60
2023/05/19 12:44:50;;;;;;;0.60;0.20;;;;;;;;;;5023298;28;58806;-61
2023/05/19 12:47:15;;;;;;;0.30;0.25;;;;;;;;;;5024915;28;58741;-62
2023/05/19 12:50:00;;;;;;;0.13;0.10;;;;;;;;;;5020372;28;58394;-60
2023/05/19 12:52:26;;;;;;;0.30;0.28;;;;;;;;;;5023187;28;58461;-62
2023/05/19 12:55:03;;;;;;;0.73;0.60;;;;;;;;;;5024369;28;58940;-62
2023/05/19 12:57:31;;;;;;;0.52;0.47;;;;;;;;;;5022824;28;58785;-61
2023/05/19 13:00:05;;;;;;;0.20;0.20;;;;;;;;;;5018050;28;58626;-61
2023/05/19 13:02:32;;;;;;;0.30;0.30;;;;;;;;;;5021422;28;59181;-62
2023/05/19 13:04:58;;;;;;;0.30;0.30;;;;;;;;;;5023921;28;59104;-62
2023/05/19 13:07:23;;;;;;;0.38;0.38;;;;;;;;;;5021924;28;58678;-62
2023/05/19 13:09:48;;;;;;;0.33;0.30;;;;;;;;;;5024040;28;58118;-62
2023/05/19 13:12:14;;;;;;;0.53;0.53;;;;;;;;;;5017837;28;58528;-62
2023/05/19 13:14:41;;;;;;;0.60;0.40;;;;;;;;;;5023007;28;58569;-62
2023/05/19 13:17:06;;;;;;;0.47;0.30;;;;;;;;;;5024296;28;58456;-60
2023/05/19 13:19:31;;;;;;;0.20;0.20;;;;;;;;;;5024683;28;58452;-62
2023/05/19 13:21:57;;;;;;;0.20;0.20;;;;;;;;;;5017044;28;58937;-62
2023/05/19 13:24:22;;;;;;;0.52;0.43;;;;;;;;;;5023393;28;58386;-62
2023/05/19 13:26:47;;;;;;;0.45;0.30;;;;;;;;;;5023448;28;58709;-62
2023/05/19 13:29:12;;;;;;;0.40;0.40;;;;;;;;;;5024129;28;59214;-61
2023/05/19 13:31:38;;;;;;;0.20;0.20;;;;;;;;;;5014736;28;58690;-61
2023/05/19 13:34:03;;;;;;;0.70;0.20;;;;;;;;;;5026589;28;58402;-62
2023/05/19 13:36:28;;;;;;;0.20;0.13;;;;;;;;;;5025848;28;58543;-61
2023/05/19 13:38:53;;;;;;;0.37;0.37;;;;;;;;;;5028395;28;59147;-62
2023/05/19 13:41:23;;;;;;;0.20;0.20;;;;;;;;;;5028157;28;58314;-62
2023/05/19 13:43:48;;;;;;;0.45;0.45;;;;;;;;;;5020281;28;62957;-62
2023/05/19 13:46:13;;;;;;;0.20;0.20;;;;;;;;;;5027033;28;58893;-62
2023/05/19 13:48:39;;;;;;;0.10;0.10;;;;;;;;;;5024483;28;61135;-62
2023/05/19 13:51:04;;;;;;;0.57;0.47;;;;;;;;;;5024245;28;58595;-62
2023/05/19 13:53:31;;;;;;;1.57;0.27;;;;;;;;;;5018007;28;58502;-62
2023/05/19 13:55:56;;;;;;;0.40;0.40;;;;;;;;;;5026629;28;58878;-62
2023/05/19 13:58:22;;;;;;;0.28;0.28;;;;;;;;;;5026264;28;58753;-62
2023/05/19 14:00:48;;;;;;;0.30;0.20;;;;;;;;;;5025822;28;58884;-62
2023/05/19 14:03:14;;;;;;;0.35;0.35;;;;;;;;;;5019139;28;58854;-62
2023/05/19 14:05:40;;;;;;;0.90;0.40;;;;;;;;;;5024783;28;59027;-62
2023/05/19 14:08:05;;;;;;;0.38;0.20;;;;;;;;;;5025602;28;58935;-62
2023/05/19 14:10:30;;;;;;;0.20;0.20;;;;;;;;;;5025457;28;58594;-61
2023/05/19 14:12:58;;;;;;;0.50;0.20;;;;;;;;;;5026318;28;58414;-62
2023/05/19 14:15:23;;;;;;;1.02;0.32;;;;;;;;;;5020596;28;58396;-62
2023/05/19 14:17:48;;;;;;;0.27;0.27;;;;;;;;;;5026369;28;58863;-62
2023/05/19 14:20:14;;;;;;;0.30;0.30;;;;;;;;;;5024563;28;58632;-62
2023/05/19 14:22:39;;;;;;;0.37;0.33;;;;;;;;;;5024676;28;59546;-63
2023/05/19 14:25:04;;;;;;;0.15;0.10;;;;;;;;;;5017785;28;58942;-62
2023/05/19 14:27:29;;;;;;;0.20;0.20;;;;;;;;;;5025675;28;58350;-62
2023/05/19 14:29:54;;;;;;;0.17;0.17;;;;;;;;;;5025373;28;58735;-61
2023/05/19 14:32:20;;;;;;;0.13;0.10;;;;;;;;;;5027758;28;59297;-62
2023/05/19 14:34:45;;;;;;;0.17;0.17;;;;;;;;;;5019152;28;58434;-62
2023/05/19 14:37:10;;;;;;;0.43;0.40;;;;;;;;;;5026109;28;58570;-61